TimeEDT,TemperatureF,Dew PointF,Humidity,Sea Level PressureIn,VisibilityMPH,Wind Direction,Wind SpeedMPH,Gust SpeedMPH,PrecipitationIn,Events,Conditions,WindDirDegrees,DateUTC
12:15 AM,48.2,42.8,82,30.11,10.0,Calm,Calm,-,N/A,,Clear,0,2013-04-08 04:15:00
12:35 AM,51.3,43.0,73,30.11,10.0,Calm,Calm,-,N/A,,Clear,0,2013-04-08 04:35:00
12:55 AM,46.6,42.8,87,30.11,10.0,Calm,Calm,-,N/A,,Clear,0,2013-04-08 04:55:00
1:15 AM,48.4,43.0,82,30.11,10.0,Calm,Calm,-,N/A,,Clear,0,2013-04-08 05:15:00
1:35 AM,48.6,43.3,82,30.11,10.0,Calm,Calm,-,N/A,,Clear,0,2013-04-08 05:35:00
1:55 AM,48.6,43.7,83,30.11,10.0,Calm,Calm,-,N/A,,Clear,0,2013-04-08 05:55:00
2:15 AM,50.0,43.3,78,30.11,10.0,Calm,Calm,-,N/A,,Clear,0,2013-04-08 06:15:00
2:35 AM,49.1,43.5,81,30.11,10.0,Calm,Calm,-,N/A,,Clear,0,2013-04-08 06:35:00
2:55 AM,47.5,43.2,85,30.10,10.0,Calm,Calm,-,N/A,,Clear,0,2013-04-08 06:55:00
3:15 AM,48.2,43.5,84,30.10,10.0,Calm,Calm,-,N/A,,Clear,0,2013-04-08 07:15:00
3:35 AM,47.1,43.2,86,30.10,10.0,Calm,Calm,-,N/A,,Clear,0,2013-04-08 07:35:00
3:55 AM,47.5,43.2,85,30.10,10.0,Calm,Calm,-,N/A,,Clear,0,2013-04-08 07:55:00
4:15 AM,46.4,43.0,88,30.11,10.0,Calm,Calm,-,N/A,,Clear,0,2013-04-08 08:15:00
4:35 AM,46.9,43.0,86,30.11,10.0,Calm,Calm,-,N/A,,Clear,0,2013-04-08 08:35:00
4:55 AM,47.8,43.3,84,30.11,10.0,Calm,Calm,-,N/A,,Clear,0,2013-04-08 08:55:00
5:15 AM,46.4,43.2,88,30.11,10.0,Calm,Calm,-,N/A,,Clear,0,2013-04-08 09:15:00
5:35 AM,46.8,43.2,87,30.11,10.0,Calm,Calm,-,N/A,,Clear,0,2013-04-08 09:35:00
5:55 AM,49.3,45.7,87,30.12,10.0,Calm,Calm,-,N/A,,Clear,0,2013-04-08 09:55:00
6:15 AM,50.5,46.4,86,30.12,10.0,Calm,Calm,-,N/A,,Clear,0,2013-04-08 10:15:00
6:55 AM,48.6,45.7,90,30.14,10.0,Calm,Calm,-,N/A,,Clear,0,2013-04-08 10:55:00
7:15 AM,49.1,45.7,88,30.14,10.0,Calm,Calm,-,N/A,,Clear,0,2013-04-08 11:15:00
7:35 AM,49.5,46.8,90,30.15,10.0,Calm,Calm,-,N/A,,Clear,0,2013-04-08 11:35:00
7:55 AM,52.0,47.8,86,30.15,10.0,SW,3.5,-,N/A,,Clear,230,2013-04-08 11:55:00
8:15 AM,53.1,48.6,85,30.15,10.0,SW,3.5,-,N/A,,Clear,230,2013-04-08 12:15:00
8:35 AM,55.4,49.6,81,30.15,10.0,WSW,3.5,-,N/A,,Clear,240,2013-04-08 12:35:00
8:55 AM,57.4,51.1,79,30.15,10.0,SW,6.9,-,N/A,,Clear,230,2013-04-08 12:55:00
9:15 AM,59.5,52.2,77,30.15,10.0,SW,8.1,-,N/A,,Clear,230,2013-04-08 13:15:00
9:35 AM,60.4,52.5,75,30.15,10.0,WSW,8.1,16.1,N/A,,Clear,240,2013-04-08 13:35:00
9:55 AM,61.7,52.7,72,30.15,10.0,WSW,6.9,-,N/A,,Clear,240,2013-04-08 13:55:00
10:15 AM,63.1,52.5,68,30.15,10.0,SW,8.1,-,N/A,,Clear,230,2013-04-08 14:15:00
10:35 AM,64.4,52.7,66,30.15,10.0,SW,5.8,-,N/A,,Clear,220,2013-04-08 14:35:00
10:55 AM,66.0,52.7,62,30.15,10.0,SSW,4.6,-,N/A,,Clear,210,2013-04-08 14:55:00
11:15 AM,67.3,52.7,59,30.15,10.0,SW,10.4,-,N/A,,Clear,230,2013-04-08 15:15:00
11:35 AM,70.0,52.5,54,30.15,10.0,SW,9.2,-,N/A,,Clear,220,2013-04-08 15:35:00
11:55 AM,72.1,52.9,51,30.15,10.0,WSW,6.9,-,N/A,,Clear,250,2013-04-08 15:55:00
12:15 PM,72.5,52.2,49,30.14,10.0,SSW,12.7,20.7,N/A,,Clear,200,2013-04-08 16:15:00
12:35 PM,73.8,52.3,47,30.13,10.0,SSW,9.2,17.3,N/A,,Clear,210,2013-04-08 16:35:00
12:55 PM,75.4,52.2,44,30.12,10.0,SW,11.5,16.1,N/A,,Clear,220,2013-04-08 16:55:00
1:15 PM,76.1,52.3,43,30.11,10.0,SW,9.2,-,N/A,,Clear,230,2013-04-08 17:15:00
1:35 PM,76.1,50.4,40,30.10,10.0,SSW,11.5,-,N/A,,Clear,200,2013-04-08 17:35:00
1:55 PM,76.8,50.4,39,30.09,10.0,WSW,11.5,-,N/A,,Scattered Clouds,240,2013-04-08 17:55:00
2:15 PM,77.9,49.8,37,30.09,10.0,WSW,10.4,18.4,N/A,,Scattered Clouds,240,2013-04-08 18:15:00
2:35 PM,77.7,49.5,37,30.08,10.0,WSW,8.1,-,N/A,,Scattered Clouds,250,2013-04-08 18:35:00
2:55 PM,77.9,49.6,37,30.08,10.0,SW,12.7,16.1,N/A,,Scattered Clouds,220,2013-04-08 18:55:00
3:15 PM,78.6,49.3,36,30.06,10.0,SSW,10.4,16.1,N/A,,Scattered Clouds,210,2013-04-08 19:15:00
3:35 PM,78.8,49.5,36,30.05,10.0,SW,8.1,18.4,N/A,,Scattered Clouds,230,2013-04-08 19:35:00
3:55 PM,78.4,48.2,34,30.05,10.0,SSW,11.5,17.3,N/A,,Clear,200,2013-04-08 19:55:00
4:15 PM,77.2,48.6,36,30.04,10.0,SSW,6.9,19.6,N/A,,Scattered Clouds,210,2013-04-08 20:15:00
4:35 PM,77.9,48.7,36,30.04,10.0,South,10.4,-,N/A,,Mostly Cloudy,180,2013-04-08 20:35:00
4:55 PM,77.9,49.3,37,30.03,10.0,South,11.5,18.4,N/A,,Mostly Cloudy,190,2013-04-08 20:55:00
5:15 PM,77.9,49.1,36,30.04,10.0,SSW,10.4,18.4,N/A,,Scattered Clouds,210,2013-04-08 21:15:00
5:35 PM,77.9,49.8,37,30.03,10.0,SSW,11.5,20.7,N/A,,Scattered Clouds,200,2013-04-08 21:35:00
5:55 PM,76.5,50.0,39,30.04,10.0,SSW,9.2,18.4,N/A,,Scattered Clouds,200,2013-04-08 21:55:00
6:15 PM,77.5,50.4,38,30.03,10.0,SSW,12.7,19.6,N/A,,Scattered Clouds,200,2013-04-08 22:15:00
6:35 PM,77.0,50.0,39,30.03,10.0,SW,11.5,17.3,N/A,,Scattered Clouds,220,2013-04-08 22:35:00
6:55 PM,76.3,50.0,40,30.04,10.0,SSW,10.4,16.1,N/A,,Clear,210,2013-04-08 22:55:00
7:15 PM,75.4,50.2,41,30.05,10.0,SSW,6.9,-,N/A,,Clear,210,2013-04-08 23:15:00
7:35 PM,74.1,50.2,43,30.05,10.0,SSW,5.8,-,N/A,,Clear,210,2013-04-08 23:35:00
7:55 PM,73.6,49.5,43,30.05,10.0,SSW,5.8,-,N/A,,Clear,210,2013-04-08 23:55:00
8:15 PM,72.7,49.6,44,30.05,10.0,SSW,4.6,-,N/A,,Clear,200,2013-04-09 00:15:00
8:35 PM,71.4,50.0,47,30.06,10.0,Calm,Calm,-,N/A,,Clear,0,2013-04-09 00:35:00
8:55 PM,70.7,50.2,48,30.07,10.0,SSW,3.5,-,N/A,,Clear,200,2013-04-09 00:55:00
9:15 PM,70.0,50.4,50,30.07,10.0,SSW,3.5,-,N/A,,Clear,210,2013-04-09 01:15:00
9:35 PM,69.3,50.5,51,30.08,10.0,Calm,Calm,-,N/A,,Clear,0,2013-04-09 01:35:00
9:55 PM,68.2,50.7,54,30.08,10.0,SSW,3.5,-,N/A,,Clear,210,2013-04-09 01:55:00
10:15 PM,68.0,50.5,54,30.08,10.0,SSW,3.5,-,N/A,,Clear,210,2013-04-09 02:15:00
10:35 PM,67.3,50.7,55,30.08,10.0,SSW,3.5,-,N/A,,Clear,210,2013-04-09 02:35:00
10:55 PM,67.5,50.5,55,30.07,10.0,SSW,3.5,-,N/A,,Clear,210,2013-04-09 02:55:00
11:15 PM,66.6,50.5,56,30.08,10.0,SW,3.5,-,N/A,,Clear,220,2013-04-09 03:15:00
11:35 PM,65.7,50.5,58,30.08,10.0,Calm,Calm,-,N/A,,Clear,0,2013-04-09 03:35:00
11:55 PM,65.5,50.7,59,30.08,10.0,SW,3.5,-,N/A,,Clear,220,2013-04-09 03:55:00